Delta Virtual Airport Information Service

Willemstad Curacao Hato International Airport

ICAO: TNCC Country: Curacao
Latitude: 12.1889 Longitude: -68.9598
Latest Arrival : DAC991 (TIST-TNCC) Latest Departure : DAC991 (TNCC-MUHA)


WX CaptureLIVE
Data provided by noaa.gov | Fetched at 23:10:16

METAR : TNCC 250300Z 11014KT 9999 FEW018 27/23 Q1012

TAF :


Runway Data for TNCC
Data provided by openaviationdata.com

Runway ID Mag Var Hdg Length Elevation Surface ILS Freq ILS Id ILS Slope
11 -9 111° 11186 ft 29 ft Asphalt 111.9 IATO 3
29 -9 291° 11186 ft 29 ft Asphalt -- -- --

Willemstad Curacao Hato International Airport, Curacao
Use only for reference purposes



Not for navigational purposes.